sensor_id;sensor_type;location;lat;lon;timestamp;P1;durP1;ratioP1;P2;durP2;ratioP2
15818;SDS011;8010;53.986;12.106;2024-01-30T00:01:10;5.67;;;3.87;;
15818;SDS011;8010;53.986;12.106;2024-01-30T00:03:36;6.33;;;5.00;;
15818;SDS011;8010;53.986;12.106;2024-01-30T00:06:02;7.10;;;4.03;;
15818;SDS011;8010;53.986;12.106;2024-01-30T00:08:28;6.37;;;3.23;;
15818;SDS011;8010;53.986;12.106;2024-01-30T00:10:54;3.70;;;2.97;;
15818;SDS011;8010;53.986;12.106;2024-01-30T00:13:20;5.37;;;3.43;;
15818;SDS011;8010;53.986;12.106;2024-01-30T00:15:45;5.80;;;3.17;;
15818;SDS011;8010;53.986;12.106;2024-01-30T00:18:11;5.90;;;3.53;;
15818;SDS011;8010;53.986;12.106;2024-01-30T00:20:37;5.90;;;3.13;;
15818;SDS011;8010;53.986;12.106;2024-01-30T00:23:03;8.43;;;4.03;;
15818;SDS011;8010;53.986;12.106;2024-01-30T00:25:28;8.60;;;5.30;;
15818;SDS011;8010;53.986;12.106;2024-01-30T00:27:54;7.30;;;4.73;;
15818;SDS011;8010;53.986;12.106;2024-01-30T00:30:20;8.57;;;4.47;;
15818;SDS011;8010;53.986;12.106;2024-01-30T00:32:45;8.13;;;5.03;;
15818;SDS011;8010;53.986;12.106;2024-01-30T00:35:11;6.40;;;3.53;;
15818;SDS011;8010;53.986;12.106;2024-01-30T00:37:36;8.07;;;3.13;;
15818;SDS011;8010;53.986;12.106;2024-01-30T00:40:02;7.10;;;3.50;;
15818;SDS011;8010;53.986;12.106;2024-01-30T00:42:28;6.10;;;3.30;;
15818;SDS011;8010;53.986;12.106;2024-01-30T00:44:54;7.80;;;3.37;;
15818;SDS011;8010;53.986;12.106;2024-01-30T00:47:19;8.40;;;3.27;;
15818;SDS011;8010;53.986;12.106;2024-01-30T00:49:45;9.70;;;3.23;;
15818;SDS011;8010;53.986;12.106;2024-01-30T00:52:10;7.07;;;3.97;;
15818;SDS011;8010;53.986;12.106;2024-01-30T00:54:36;10.67;;;4.47;;
15818;SDS011;8010;53.986;12.106;2024-01-30T00:57:02;4.97;;;3.00;;
15818;SDS011;8010;53.986;12.106;2024-01-30T00:59:28;5.87;;;3.33;;
15818;SDS011;8010;53.986;12.106;2024-01-30T01:01:53;4.83;;;3.70;;
15818;SDS011;8010;53.986;12.106;2024-01-30T01:04:19;5.27;;;3.83;;
15818;SDS011;8010;53.986;12.106;2024-01-30T01:06:46;6.73;;;3.87;;
15818;SDS011;8010;53.986;12.106;2024-01-30T01:09:12;5.07;;;3.23;;
15818;SDS011;8010;53.986;12.106;2024-01-30T01:11:37;4.33;;;3.23;;
15818;SDS011;8010;53.986;12.106;2024-01-30T01:14:03;9.03;;;3.90;;
15818;SDS011;8010;53.986;12.106;2024-01-30T01:16:29;6.10;;;3.30;;
15818;SDS011;8010;53.986;12.106;2024-01-30T01:18:55;5.87;;;3.33;;
15818;SDS011;8010;53.986;12.106;2024-01-30T01:21:21;4.60;;;3.50;;
15818;SDS011;8010;53.986;12.106;2024-01-30T01:23:46;6.13;;;3.30;;
15818;SDS011;8010;53.986;12.106;2024-01-30T01:26:12;5.80;;;3.47;;
15818;SDS011;8010;53.986;12.106;2024-01-30T01:28:39;9.37;;;3.97;;
15818;SDS011;8010;53.986;12.106;2024-01-30T01:31:06;5.37;;;3.30;;
15818;SDS011;8010;53.986;12.106;2024-01-30T01:33:31;5.40;;;3.50;;
15818;SDS011;8010;53.986;12.106;2024-01-30T01:35:58;7.00;;;3.40;;
15818;SDS011;8010;53.986;12.106;2024-01-30T01:38:24;5.07;;;3.47;;
15818;SDS011;8010;53.986;12.106;2024-01-30T01:40:49;6.20;;;3.10;;
15818;SDS011;8010;53.986;12.106;2024-01-30T01:43:16;4.03;;;3.10;;
15818;SDS011;8010;53.986;12.106;2024-01-30T01:45:41;4.63;;;3.27;;
15818;SDS011;8010;53.986;12.106;2024-01-30T01:48:07;5.00;;;3.20;;
15818;SDS011;8010;53.986;12.106;2024-01-30T01:50:34;6.03;;;3.53;;
15818;SDS011;8010;53.986;12.106;2024-01-30T01:53:00;5.27;;;3.47;;
15818;SDS011;8010;53.986;12.106;2024-01-30T01:55:27;6.57;;;3.87;;
15818;SDS011;8010;53.986;12.106;2024-01-30T01:57:55;6.23;;;3.80;;
15818;SDS011;8010;53.986;12.106;2024-01-30T02:00:21;5.77;;;3.70;;
15818;SDS011;8010;53.986;12.106;2024-01-30T02:02:46;5.27;;;3.67;;
15818;SDS011;8010;53.986;12.106;2024-01-30T02:05:12;6.07;;;3.50;;
15818;SDS011;8010;53.986;12.106;2024-01-30T02:07:38;6.60;;;3.27;;
15818;SDS011;8010;53.986;12.106;2024-01-30T02:10:04;4.93;;;3.60;;
15818;SDS011;8010;53.986;12.106;2024-01-30T02:12:29;7.03;;;4.23;;
15818;SDS011;8010;53.986;12.106;2024-01-30T02:14:55;6.37;;;3.43;;
15818;SDS011;8010;53.986;12.106;2024-01-30T02:17:20;5.77;;;3.47;;
15818;SDS011;8010;53.986;12.106;2024-01-30T02:19:48;6.30;;;3.90;;
15818;SDS011;8010;53.986;12.106;2024-01-30T02:22:13;5.87;;;3.70;;
15818;SDS011;8010;53.986;12.106;2024-01-30T02:24:39;6.00;;;3.50;;
15818;SDS011;8010;53.986;12.106;2024-01-30T02:27:05;5.30;;;3.67;;
15818;SDS011;8010;53.986;12.106;2024-01-30T02:29:30;4.33;;;3.50;;
15818;SDS011;8010;53.986;12.106;2024-01-30T02:31:56;7.17;;;3.97;;
15818;SDS011;8010;53.986;12.106;2024-01-30T02:34:21;5.27;;;3.77;;
15818;SDS011;8010;53.986;12.106;2024-01-30T02:36:47;7.37;;;4.30;;
15818;SDS011;8010;53.986;12.106;2024-01-30T02:39:13;6.20;;;3.77;;
15818;SDS011;8010;53.986;12.106;2024-01-30T02:41:38;6.30;;;4.07;;
15818;SDS011;8010;53.986;12.106;2024-01-30T02:44:04;6.07;;;3.60;;
15818;SDS011;8010;53.986;12.106;2024-01-30T02:46:29;5.07;;;3.60;;
15818;SDS011;8010;53.986;12.106;2024-01-30T02:48:55;5.40;;;3.67;;
15818;SDS011;8010;53.986;12.106;2024-01-30T02:51:21;7.47;;;3.60;;
15818;SDS011;8010;53.986;12.106;2024-01-30T02:53:46;5.13;;;3.70;;
15818;SDS011;8010;53.986;12.106;2024-01-30T02:56:12;5.87;;;3.80;;
15818;SDS011;8010;53.986;12.106;2024-01-30T02:58:39;6.87;;;3.77;;
15818;SDS011;8010;53.986;12.106;2024-01-30T03:01:05;8.80;;;4.00;;
15818;SDS011;8010;53.986;12.106;2024-01-30T03:03:31;5.70;;;3.47;;
15818;SDS011;8010;53.986;12.106;2024-01-30T03:05:56;5.83;;;3.67;;
15818;SDS011;8010;53.986;12.106;2024-01-30T03:08:22;6.23;;;4.10;;
15818;SDS011;8010;53.986;12.106;2024-01-30T03:10:48;4.97;;;3.40;;
15818;SDS011;8010;53.986;12.106;2024-01-30T03:13:13;8.07;;;4.10;;
15818;SDS011;8010;53.986;12.106;2024-01-30T03:15:39;5.23;;;3.60;;
15818;SDS011;8010;53.986;12.106;2024-01-30T03:18:04;8.57;;;4.00;;
15818;SDS011;8010;53.986;12.106;2024-01-30T03:20:30;5.73;;;3.50;;
15818;SDS011;8010;53.986;12.106;2024-01-30T03:22:56;5.00;;;3.63;;
15818;SDS011;8010;53.986;12.106;2024-01-30T03:25:22;6.53;;;4.23;;
15818;SDS011;8010;53.986;12.106;2024-01-30T03:27:48;5.37;;;3.60;;
15818;SDS011;8010;53.986;12.106;2024-01-30T03:30:14;5.20;;;3.27;;
15818;SDS011;8010;53.986;12.106;2024-01-30T03:32:39;6.23;;;3.27;;
15818;SDS011;8010;53.986;12.106;2024-01-30T03:35:05;5.83;;;3.73;;
15818;SDS011;8010;53.986;12.106;2024-01-30T03:37:31;4.43;;;3.57;;
15818;SDS011;8010;53.986;12.106;2024-01-30T03:39:56;5.80;;;3.63;;
15818;SDS011;8010;53.986;12.106;2024-01-30T03:42:22;5.40;;;3.80;;
15818;SDS011;8010;53.986;12.106;2024-01-30T03:44:47;7.03;;;4.00;;
15818;SDS011;8010;53.986;12.106;2024-01-30T03:47:13;4.67;;;3.40;;
15818;SDS011;8010;53.986;12.106;2024-01-30T03:49:38;6.27;;;3.63;;
15818;SDS011;8010;53.986;12.106;2024-01-30T03:52:04;9.73;;;4.40;;
15818;SDS011;8010;53.986;12.106;2024-01-30T03:54:30;5.23;;;3.53;;
15818;SDS011;8010;53.986;12.106;2024-01-30T03:56:56;6.60;;;4.10;;
15818;SDS011;8010;53.986;12.106;2024-01-30T03:59:21;7.77;;;4.10;;
15818;SDS011;8010;53.986;12.106;2024-01-30T04:01:49;5.67;;;3.90;;
15818;SDS011;8010;53.986;12.106;2024-01-30T04:04:15;5.17;;;4.00;;
15818;SDS011;8010;53.986;12.106;2024-01-30T04:06:41;6.13;;;3.93;;
15818;SDS011;8010;53.986;12.106;2024-01-30T04:09:07;8.10;;;4.10;;
15818;SDS011;8010;53.986;12.106;2024-01-30T04:11:32;6.20;;;4.17;;
15818;SDS011;8010;53.986;12.106;2024-01-30T04:13:58;10.37;;;4.13;;
15818;SDS011;8010;53.986;12.106;2024-01-30T04:16:24;6.27;;;3.57;;
15818;SDS011;8010;53.986;12.106;2024-01-30T04:18:50;8.80;;;4.30;;
15818;SDS011;8010;53.986;12.106;2024-01-30T04:21:16;7.87;;;3.70;;
15818;SDS011;8010;53.986;12.106;2024-01-30T04:23:42;6.67;;;4.17;;
15818;SDS011;8010;53.986;12.106;2024-01-30T04:26:07;6.97;;;4.30;;
15818;SDS011;8010;53.986;12.106;2024-01-30T04:28:33;7.00;;;4.10;;
15818;SDS011;8010;53.986;12.106;2024-01-30T04:30:59;5.57;;;3.63;;
15818;SDS011;8010;53.986;12.106;2024-01-30T04:33:24;9.43;;;3.90;;
15818;SDS011;8010;53.986;12.106;2024-01-30T04:35:50;5.23;;;3.50;;
15818;SDS011;8010;53.986;12.106;2024-01-30T04:38:15;5.43;;;4.13;;
15818;SDS011;8010;53.986;12.106;2024-01-30T04:40:41;5.40;;;3.70;;
15818;SDS011;8010;53.986;12.106;2024-01-30T04:43:06;6.20;;;3.57;;
15818;SDS011;8010;53.986;12.106;2024-01-30T04:45:32;4.93;;;4.17;;
15818;SDS011;8010;53.986;12.106;2024-01-30T04:47:57;7.33;;;4.00;;
15818;SDS011;8010;53.986;12.106;2024-01-30T04:50:23;8.13;;;4.50;;
15818;SDS011;8010;53.986;12.106;2024-01-30T04:52:48;5.80;;;4.10;;
15818;SDS011;8010;53.986;12.106;2024-01-30T04:55:14;9.70;;;4.57;;
15818;SDS011;8010;53.986;12.106;2024-01-30T04:57:40;5.10;;;3.83;;
15818;SDS011;8010;53.986;12.106;2024-01-30T05:00:06;6.00;;;4.53;;
15818;SDS011;8010;53.986;12.106;2024-01-30T05:02:32;6.17;;;4.17;;
15818;SDS011;8010;53.986;12.106;2024-01-30T05:04:57;7.60;;;3.97;;
15818;SDS011;8010;53.986;12.106;2024-01-30T05:07:24;7.13;;;4.37;;
15818;SDS011;8010;53.986;12.106;2024-01-30T05:09:50;8.07;;;4.80;;
15818;SDS011;8010;53.986;12.106;2024-01-30T05:12:15;7.23;;;4.00;;
15818;SDS011;8010;53.986;12.106;2024-01-30T05:14:41;8.60;;;4.97;;
15818;SDS011;8010;53.986;12.106;2024-01-30T05:17:06;6.83;;;3.93;;
15818;SDS011;8010;53.986;12.106;2024-01-30T05:19:34;9.30;;;4.40;;
15818;SDS011;8010;53.986;12.106;2024-01-30T05:21:59;7.00;;;4.27;;
15818;SDS011;8010;53.986;12.106;2024-01-30T05:24:25;6.50;;;4.17;;
15818;SDS011;8010;53.986;12.106;2024-01-30T05:26:50;8.67;;;4.40;;
15818;SDS011;8010;53.986;12.106;2024-01-30T05:29:16;10.73;;;4.20;;
15818;SDS011;8010;53.986;12.106;2024-01-30T05:31:42;7.47;;;4.80;;
15818;SDS011;8010;53.986;12.106;2024-01-30T05:34:07;8.43;;;4.40;;
15818;SDS011;8010;53.986;12.106;2024-01-30T05:36:34;6.90;;;4.53;;
15818;SDS011;8010;53.986;12.106;2024-01-30T05:38:59;9.17;;;4.40;;
15818;SDS011;8010;53.986;12.106;2024-01-30T05:41:25;6.00;;;4.67;;
15818;SDS011;8010;53.986;12.106;2024-01-30T05:43:50;7.87;;;4.37;;
15818;SDS011;8010;53.986;12.106;2024-01-30T05:46:16;6.37;;;4.50;;
15818;SDS011;8010;53.986;12.106;2024-01-30T05:48:41;6.63;;;4.67;;
15818;SDS011;8010;53.986;12.106;2024-01-30T05:51:07;6.33;;;4.10;;
15818;SDS011;8010;53.986;12.106;2024-01-30T05:53:33;10.37;;;4.97;;
15818;SDS011;8010;53.986;12.106;2024-01-30T05:56:01;5.67;;;3.93;;
15818;SDS011;8010;53.986;12.106;2024-01-30T05:58:27;6.07;;;4.40;;
15818;SDS011;8010;53.986;12.106;2024-01-30T06:00:53;4.90;;;3.83;;
15818;SDS011;8010;53.986;12.106;2024-01-30T06:03:18;5.47;;;3.97;;
15818;SDS011;8010;53.986;12.106;2024-01-30T06:05:44;6.53;;;4.73;;
15818;SDS011;8010;53.986;12.106;2024-01-30T06:08:09;7.03;;;4.40;;
15818;SDS011;8010;53.986;12.106;2024-01-30T06:10:35;7.60;;;4.43;;
15818;SDS011;8010;53.986;12.106;2024-01-30T06:13:01;5.27;;;4.07;;
15818;SDS011;8010;53.986;12.106;2024-01-30T06:15:26;6.47;;;4.60;;
15818;SDS011;8010;53.986;12.106;2024-01-30T06:17:52;6.87;;;4.60;;
15818;SDS011;8010;53.986;12.106;2024-01-30T06:20:17;9.30;;;4.60;;
15818;SDS011;8010;53.986;12.106;2024-01-30T06:22:43;7.20;;;4.27;;
15818;SDS011;8010;53.986;12.106;2024-01-30T06:25:08;9.20;;;4.67;;
15818;SDS011;8010;53.986;12.106;2024-01-30T06:27:35;7.90;;;4.90;;
15818;SDS011;8010;53.986;12.106;2024-01-30T06:30:00;5.63;;;4.37;;
15818;SDS011;8010;53.986;12.106;2024-01-30T06:32:26;6.60;;;4.90;;
15818;SDS011;8010;53.986;12.106;2024-01-30T06:34:53;6.70;;;3.93;;
15818;SDS011;8010;53.986;12.106;2024-01-30T06:37:19;8.13;;;4.60;;
15818;SDS011;8010;53.986;12.106;2024-01-30T06:39:44;5.70;;;4.03;;
15818;SDS011;8010;53.986;12.106;2024-01-30T06:42:10;8.53;;;4.27;;
15818;SDS011;8010;53.986;12.106;2024-01-30T06:44:36;6.00;;;4.17;;
15818;SDS011;8010;53.986;12.106;2024-01-30T06:47:02;8.33;;;4.77;;
15818;SDS011;8010;53.986;12.106;2024-01-30T06:49:27;7.93;;;4.00;;
15818;SDS011;8010;53.986;12.106;2024-01-30T06:51:53;8.97;;;5.70;;
15818;SDS011;8010;53.986;12.106;2024-01-30T06:54:18;10.23;;;5.23;;
15818;SDS011;8010;53.986;12.106;2024-01-30T06:56:44;6.97;;;4.90;;
15818;SDS011;8010;53.986;12.106;2024-01-30T06:59:09;12.20;;;6.80;;
15818;SDS011;8010;53.986;12.106;2024-01-30T07:01:35;10.13;;;6.13;;
15818;SDS011;8010;53.986;12.106;2024-01-30T07:04:00;10.63;;;6.30;;
15818;SDS011;8010;53.986;12.106;2024-01-30T07:06:26;7.73;;;5.73;;
15818;SDS011;8010;53.986;12.106;2024-01-30T07:08:51;9.03;;;5.27;;
15818;SDS011;8010;53.986;12.106;2024-01-30T07:11:20;6.97;;;4.87;;
15818;SDS011;8010;53.986;12.106;2024-01-30T07:13:47;7.80;;;5.63;;
15818;SDS011;8010;53.986;12.106;2024-01-30T07:16:13;7.03;;;4.53;;
15818;SDS011;8010;53.986;12.106;2024-01-30T07:18:39;8.33;;;5.13;;
15818;SDS011;8010;53.986;12.106;2024-01-30T07:21:04;8.47;;;4.93;;
15818;SDS011;8010;53.986;12.106;2024-01-30T07:23:30;10.17;;;5.53;;
15818;SDS011;8010;53.986;12.106;2024-01-30T07:25:55;7.53;;;5.30;;
15818;SDS011;8010;53.986;12.106;2024-01-30T07:28:21;6.83;;;4.90;;
15818;SDS011;8010;53.986;12.106;2024-01-30T07:30:46;7.37;;;5.50;;
15818;SDS011;8010;53.986;12.106;2024-01-30T07:33:13;8.03;;;5.03;;
15818;SDS011;8010;53.986;12.106;2024-01-30T07:35:38;8.20;;;5.27;;
15818;SDS011;8010;53.986;12.106;2024-01-30T07:38:04;8.43;;;5.93;;
15818;SDS011;8010;53.986;12.106;2024-01-30T07:40:30;7.33;;;5.07;;
15818;SDS011;8010;53.986;12.106;2024-01-30T07:42:55;10.57;;;6.00;;
15818;SDS011;8010;53.986;12.106;2024-01-30T07:45:21;11.53;;;5.90;;
15818;SDS011;8010;53.986;12.106;2024-01-30T07:47:48;11.00;;;6.00;;
15818;SDS011;8010;53.986;12.106;2024-01-30T07:50:14;10.03;;;6.23;;
15818;SDS011;8010;53.986;12.106;2024-01-30T07:52:40;8.47;;;5.27;;
15818;SDS011;8010;53.986;12.106;2024-01-30T07:55:05;8.60;;;6.03;;
15818;SDS011;8010;53.986;12.106;2024-01-30T07:57:32;8.73;;;5.13;;
15818;SDS011;8010;53.986;12.106;2024-01-30T07:59:59;8.50;;;5.80;;
15818;SDS011;8010;53.986;12.106;2024-01-30T08:02:25;9.20;;;5.47;;
15818;SDS011;8010;53.986;12.106;2024-01-30T08:04:50;8.60;;;5.93;;
15818;SDS011;8010;53.986;12.106;2024-01-30T08:07:16;8.13;;;5.73;;
15818;SDS011;8010;53.986;12.106;2024-01-30T08:09:42;8.40;;;5.67;;
15818;SDS011;8010;53.986;12.106;2024-01-30T08:12:08;7.97;;;5.87;;
15818;SDS011;8010;53.986;12.106;2024-01-30T08:14:34;9.57;;;6.07;;
15818;SDS011;8010;53.986;12.106;2024-01-30T08:16:59;8.37;;;5.97;;
15818;SDS011;8010;53.986;12.106;2024-01-30T08:19:25;6.50;;;5.27;;
15818;SDS011;8010;53.986;12.106;2024-01-30T08:21:50;8.43;;;5.53;;
15818;SDS011;8010;53.986;12.106;2024-01-30T08:24:16;8.53;;;5.60;;
15818;SDS011;8010;53.986;12.106;2024-01-30T08:26:41;9.70;;;5.97;;
15818;SDS011;8010;53.986;12.106;2024-01-30T08:29:07;8.90;;;5.83;;
15818;SDS011;8010;53.986;12.106;2024-01-30T08:31:32;8.43;;;5.50;;
15818;SDS011;8010;53.986;12.106;2024-01-30T08:33:58;9.10;;;5.60;;
15818;SDS011;8010;53.986;12.106;2024-01-30T08:36:23;8.57;;;6.37;;
15818;SDS011;8010;53.986;12.106;2024-01-30T08:38:50;9.33;;;6.20;;
15818;SDS011;8010;53.986;12.106;2024-01-30T08:41:15;8.07;;;5.63;;
15818;SDS011;8010;53.986;12.106;2024-01-30T08:43:41;8.87;;;5.70;;
15818;SDS011;8010;53.986;12.106;2024-01-30T08:46:06;10.37;;;6.27;;
15818;SDS011;8010;53.986;12.106;2024-01-30T08:48:32;9.10;;;6.03;;
15818;SDS011;8010;53.986;12.106;2024-01-30T08:50:57;10.90;;;6.37;;
15818;SDS011;8010;53.986;12.106;2024-01-30T08:53:23;10.37;;;6.17;;
15818;SDS011;8010;53.986;12.106;2024-01-30T08:55:48;9.87;;;6.20;;
15818;SDS011;8010;53.986;12.106;2024-01-30T08:58:13;9.63;;;6.00;;
15818;SDS011;8010;53.986;12.106;2024-01-30T09:00:40;9.47;;;6.10;;
15818;SDS011;8010;53.986;12.106;2024-01-30T09:03:05;8.70;;;5.90;;
15818;SDS011;8010;53.986;12.106;2024-01-30T09:05:31;9.33;;;6.13;;
15818;SDS011;8010;53.986;12.106;2024-01-30T09:07:56;8.63;;;6.13;;
15818;SDS011;8010;53.986;12.106;2024-01-30T09:10:22;7.90;;;5.97;;
15818;SDS011;8010;53.986;12.106;2024-01-30T09:12:47;10.17;;;6.40;;
15818;SDS011;8010;53.986;12.106;2024-01-30T09:15:14;9.80;;;6.47;;
15818;SDS011;8010;53.986;12.106;2024-01-30T09:17:40;9.23;;;6.13;;
15818;SDS011;8010;53.986;12.106;2024-01-30T09:20:05;13.77;;;7.30;;
15818;SDS011;8010;53.986;12.106;2024-01-30T09:22:31;8.77;;;6.13;;
15818;SDS011;8010;53.986;12.106;2024-01-30T09:24:57;18.73;;;9.97;;
15818;SDS011;8010;53.986;12.106;2024-01-30T09:27:23;22.77;;;12.47;;
15818;SDS011;8010;53.986;12.106;2024-01-30T09:29:48;14.40;;;7.90;;
15818;SDS011;8010;53.986;12.106;2024-01-30T09:32:14;17.80;;;9.73;;
15818;SDS011;8010;53.986;12.106;2024-01-30T09:34:40;21.03;;;10.40;;
15818;SDS011;8010;53.986;12.106;2024-01-30T09:37:06;20.63;;;12.47;;
15818;SDS011;8010;53.986;12.106;2024-01-30T09:39:32;12.90;;;8.87;;
15818;SDS011;8010;53.986;12.106;2024-01-30T09:42:02;14.13;;;8.37;;
15818;SDS011;8010;53.986;12.106;2024-01-30T09:44:48;14.63;;;9.03;;
15818;SDS011;8010;53.986;12.106;2024-01-30T09:47:16;10.90;;;6.73;;
15818;SDS011;8010;53.986;12.106;2024-01-30T09:49:43;10.43;;;6.67;;
15818;SDS011;8010;53.986;12.106;2024-01-30T09:52:09;11.53;;;6.30;;
15818;SDS011;8010;53.986;12.106;2024-01-30T09:54:35;12.40;;;6.40;;
15818;SDS011;8010;53.986;12.106;2024-01-30T09:57:02;11.57;;;7.23;;
15818;SDS011;8010;53.986;12.106;2024-01-30T09:59:29;13.97;;;8.87;;
15818;SDS011;8010;53.986;12.106;2024-01-30T10:01:54;15.60;;;9.27;;
15818;SDS011;8010;53.986;12.106;2024-01-30T10:04:21;15.33;;;8.63;;
15818;SDS011;8010;53.986;12.106;2024-01-30T10:06:47;11.70;;;8.00;;
15818;SDS011;8010;53.986;12.106;2024-01-30T10:09:13;11.27;;;7.37;;
15818;SDS011;8010;53.986;12.106;2024-01-30T10:11:38;10.80;;;7.33;;
15818;SDS011;8010;53.986;12.106;2024-01-30T10:14:04;11.13;;;6.97;;
15818;SDS011;8010;53.986;12.106;2024-01-30T10:16:29;9.77;;;7.17;;
15818;SDS011;8010;53.986;12.106;2024-01-30T10:18:55;11.57;;;7.77;;
15818;SDS011;8010;53.986;12.106;2024-01-30T10:21:21;10.80;;;6.70;;
15818;SDS011;8010;53.986;12.106;2024-01-30T10:23:47;10.23;;;7.30;;
15818;SDS011;8010;53.986;12.106;2024-01-30T10:26:12;11.73;;;7.37;;
15818;SDS011;8010;53.986;12.106;2024-01-30T10:28:38;12.97;;;7.30;;
15818;SDS011;8010;53.986;12.106;2024-01-30T10:31:04;13.23;;;7.57;;
15818;SDS011;8010;53.986;12.106;2024-01-30T10:33:30;12.80;;;9.27;;
15818;SDS011;8010;53.986;12.106;2024-01-30T10:35:56;11.73;;;8.60;;
15818;SDS011;8010;53.986;12.106;2024-01-30T10:38:26;9.60;;;6.53;;
15818;SDS011;8010;53.986;12.106;2024-01-30T10:40:56;9.40;;;7.00;;
15818;SDS011;8010;53.986;12.106;2024-01-30T10:43:22;14.43;;;8.30;;
15818;SDS011;8010;53.986;12.106;2024-01-30T10:45:49;12.50;;;7.73;;
15818;SDS011;8010;53.986;12.106;2024-01-30T10:48:18;9.53;;;6.60;;
15818;SDS011;8010;53.986;12.106;2024-01-30T10:50:46;13.20;;;7.90;;
15818;SDS011;8010;53.986;12.106;2024-01-30T10:53:12;12.70;;;8.43;;
15818;SDS011;8010;53.986;12.106;2024-01-30T10:55:39;14.70;;;8.70;;
15818;SDS011;8010;53.986;12.106;2024-01-30T10:58:05;11.40;;;7.20;;
15818;SDS011;8010;53.986;12.106;2024-01-30T11:00:31;13.30;;;6.90;;
15818;SDS011;8010;53.986;12.106;2024-01-30T11:02:58;11.83;;;7.17;;
15818;SDS011;8010;53.986;12.106;2024-01-30T11:05:24;10.33;;;6.97;;
15818;SDS011;8010;53.986;12.106;2024-01-30T11:07:51;10.80;;;6.83;;
15818;SDS011;8010;53.986;12.106;2024-01-30T11:10:17;11.40;;;6.97;;
15818;SDS011;8010;53.986;12.106;2024-01-30T11:12:42;16.87;;;7.67;;
15818;SDS011;8010;53.986;12.106;2024-01-30T11:15:10;13.40;;;7.90;;
15818;SDS011;8010;53.986;12.106;2024-01-30T11:20:09;13.33;;;7.27;;
15818;SDS011;8010;53.986;12.106;2024-01-30T11:22:44;13.87;;;7.47;;
15818;SDS011;8010;53.986;12.106;2024-01-30T11:25:11;12.23;;;6.97;;
15818;SDS011;8010;53.986;12.106;2024-01-30T11:27:38;8.97;;;7.13;;
15818;SDS011;8010;53.986;12.106;2024-01-30T11:30:04;9.60;;;7.10;;
15818;SDS011;8010;53.986;12.106;2024-01-30T11:32:30;9.87;;;6.53;;
15818;SDS011;8010;53.986;12.106;2024-01-30T11:34:55;12.87;;;6.40;;
15818;SDS011;8010;53.986;12.106;2024-01-30T11:37:21;11.77;;;6.37;;
15818;SDS011;8010;53.986;12.106;2024-01-30T11:39:51;9.00;;;7.30;;
15818;SDS011;8010;53.986;12.106;2024-01-30T11:42:22;10.23;;;6.47;;
15818;SDS011;8010;53.986;12.106;2024-01-30T11:44:50;9.93;;;6.60;;
15818;SDS011;8010;53.986;12.106;2024-01-30T11:47:16;9.73;;;6.40;;
15818;SDS011;8010;53.986;12.106;2024-01-30T11:49:43;12.53;;;7.17;;
15818;SDS011;8010;53.986;12.106;2024-01-30T11:52:09;9.57;;;6.93;;
15818;SDS011;8010;53.986;12.106;2024-01-30T11:54:34;12.27;;;7.20;;
15818;SDS011;8010;53.986;12.106;2024-01-30T11:57:00;8.83;;;7.03;;
15818;SDS011;8010;53.986;12.106;2024-01-30T11:59:26;9.37;;;6.27;;
15818;SDS011;8010;53.986;12.106;2024-01-30T12:01:52;9.67;;;6.53;;
15818;SDS011;8010;53.986;12.106;2024-01-30T12:04:17;10.67;;;6.97;;
15818;SDS011;8010;53.986;12.106;2024-01-30T12:06:43;13.13;;;7.40;;
15818;SDS011;8010;53.986;12.106;2024-01-30T12:09:09;10.03;;;6.50;;
15818;SDS011;8010;53.986;12.106;2024-01-30T12:11:43;9.40;;;6.83;;
15818;SDS011;8010;53.986;12.106;2024-01-30T12:14:10;9.40;;;6.63;;
15818;SDS011;8010;53.986;12.106;2024-01-30T12:16:36;11.07;;;7.20;;
15818;SDS011;8010;53.986;12.106;2024-01-30T12:19:01;10.13;;;6.73;;
15818;SDS011;8010;53.986;12.106;2024-01-30T12:21:27;10.17;;;7.23;;
15818;SDS011;8010;53.986;12.106;2024-01-30T12:23:54;10.80;;;6.70;;
15818;SDS011;8010;53.986;12.106;2024-01-30T12:26:19;11.00;;;6.60;;
15818;SDS011;8010;53.986;12.106;2024-01-30T12:28:48;10.83;;;7.20;;
15818;SDS011;8010;53.986;12.106;2024-01-30T12:31:14;9.40;;;6.57;;
15818;SDS011;8010;53.986;12.106;2024-01-30T12:33:40;9.50;;;6.63;;
15818;SDS011;8010;53.986;12.106;2024-01-30T12:36:06;10.50;;;7.50;;
15818;SDS011;8010;53.986;12.106;2024-01-30T12:38:32;13.43;;;7.37;;
15818;SDS011;8010;53.986;12.106;2024-01-30T12:40:57;10.30;;;6.93;;
15818;SDS011;8010;53.986;12.106;2024-01-30T12:43:26;9.23;;;6.47;;
15818;SDS011;8010;53.986;12.106;2024-01-30T12:45:53;10.63;;;6.97;;
15818;SDS011;8010;53.986;12.106;2024-01-30T12:48:18;9.93;;;7.20;;
15818;SDS011;8010;53.986;12.106;2024-01-30T12:50:44;9.23;;;6.80;;
15818;SDS011;8010;53.986;12.106;2024-01-30T12:53:09;9.13;;;6.20;;
15818;SDS011;8010;53.986;12.106;2024-01-30T12:55:35;8.63;;;6.40;;
15818;SDS011;8010;53.986;12.106;2024-01-30T12:58:00;11.93;;;7.07;;
15818;SDS011;8010;53.986;12.106;2024-01-30T13:00:26;11.80;;;6.83;;
15818;SDS011;8010;53.986;12.106;2024-01-30T13:02:52;12.43;;;7.80;;
15818;SDS011;8010;53.986;12.106;2024-01-30T13:05:17;14.33;;;6.80;;
15818;SDS011;8010;53.986;12.106;2024-01-30T13:07:43;10.17;;;6.73;;
15818;SDS011;8010;53.986;12.106;2024-01-30T13:10:09;11.23;;;7.07;;
15818;SDS011;8010;53.986;12.106;2024-01-30T13:12:34;13.20;;;7.70;;
15818;SDS011;8010;53.986;12.106;2024-01-30T13:15:00;12.57;;;7.20;;
15818;SDS011;8010;53.986;12.106;2024-01-30T13:17:26;12.60;;;7.53;;
15818;SDS011;8010;53.986;12.106;2024-01-30T13:19:52;11.40;;;6.93;;
15818;SDS011;8010;53.986;12.106;2024-01-30T13:22:19;11.70;;;7.03;;
15818;SDS011;8010;53.986;12.106;2024-01-30T13:24:46;14.37;;;7.90;;
15818;SDS011;8010;53.986;12.106;2024-01-30T13:27:12;10.03;;;6.27;;
15818;SDS011;8010;53.986;12.106;2024-01-30T13:29:37;10.30;;;6.93;;
15818;SDS011;8010;53.986;12.106;2024-01-30T13:32:03;10.90;;;6.80;;
15818;SDS011;8010;53.986;12.106;2024-01-30T13:34:29;10.07;;;7.23;;
15818;SDS011;8010;53.986;12.106;2024-01-30T13:36:54;10.17;;;6.20;;
15818;SDS011;8010;53.986;12.106;2024-01-30T13:39:20;9.70;;;6.17;;
15818;SDS011;8010;53.986;12.106;2024-01-30T13:41:45;13.23;;;7.67;;
15818;SDS011;8010;53.986;12.106;2024-01-30T13:44:11;11.53;;;7.10;;
15818;SDS011;8010;53.986;12.106;2024-01-30T13:46:37;9.77;;;6.60;;
15818;SDS011;8010;53.986;12.106;2024-01-30T13:49:04;9.33;;;6.47;;
15818;SDS011;8010;53.986;12.106;2024-01-30T13:51:29;11.03;;;7.47;;
15818;SDS011;8010;53.986;12.106;2024-01-30T13:53:55;10.63;;;7.13;;
15818;SDS011;8010;53.986;12.106;2024-01-30T13:56:20;11.50;;;7.07;;
15818;SDS011;8010;53.986;12.106;2024-01-30T13:58:48;9.63;;;6.37;;
15818;SDS011;8010;53.986;12.106;2024-01-30T14:01:14;11.43;;;6.27;;
15818;SDS011;8010;53.986;12.106;2024-01-30T14:03:40;9.53;;;6.27;;
15818;SDS011;8010;53.986;12.106;2024-01-30T14:06:06;11.73;;;6.73;;
15818;SDS011;8010;53.986;12.106;2024-01-30T14:08:31;8.93;;;6.00;;
15818;SDS011;8010;53.986;12.106;2024-01-30T14:10:57;10.17;;;6.47;;
15818;SDS011;8010;53.986;12.106;2024-01-30T14:13:23;11.77;;;7.33;;
15818;SDS011;8010;53.986;12.106;2024-01-30T14:15:50;9.77;;;6.67;;
15818;SDS011;8010;53.986;12.106;2024-01-30T14:18:18;13.13;;;7.10;;
15818;SDS011;8010;53.986;12.106;2024-01-30T14:20:44;9.87;;;6.60;;
15818;SDS011;8010;53.986;12.106;2024-01-30T14:23:10;13.33;;;7.37;;
15818;SDS011;8010;53.986;12.106;2024-01-30T14:25:35;11.00;;;7.30;;
15818;SDS011;8010;53.986;12.106;2024-01-30T14:28:01;12.27;;;7.10;;
15818;SDS011;8010;53.986;12.106;2024-01-30T14:30:26;10.90;;;6.67;;
15818;SDS011;8010;53.986;12.106;2024-01-30T14:32:52;11.10;;;7.07;;
15818;SDS011;8010;53.986;12.106;2024-01-30T14:35:17;11.47;;;7.40;;
15818;SDS011;8010;53.986;12.106;2024-01-30T14:37:44;10.73;;;6.90;;